sensor_id;sensor_type;location;lat;lon;timestamp;P1;durP1;ratioP1;P2;durP2;ratioP2
13891;SDS011;7016;48.172;8.058;2023-06-14T00:01:41;6.63;;;4.28;;
13891;SDS011;7016;48.172;8.058;2023-06-14T00:04:31;8.90;;;4.40;;
13891;SDS011;7016;48.172;8.058;2023-06-14T00:07:17;8.15;;;4.00;;
13891;SDS011;7016;48.172;8.058;2023-06-14T00:10:04;7.70;;;3.90;;
13891;SDS011;7016;48.172;8.058;2023-06-14T00:12:50;6.13;;;3.88;;
13891;SDS011;7016;48.172;8.058;2023-06-14T00:15:37;8.43;;;3.95;;
13891;SDS011;7016;48.172;8.058;2023-06-14T00:18:23;8.68;;;3.90;;
13891;SDS011;7016;48.172;8.058;2023-06-14T00:21:09;9.77;;;4.75;;
13891;SDS011;7016;48.172;8.058;2023-06-14T00:23:57;10.43;;;4.03;;
13891;SDS011;7016;48.172;8.058;2023-06-14T00:26:43;9.30;;;4.20;;
13891;SDS011;7016;48.172;8.058;2023-06-14T00:29:29;9.73;;;3.97;;
13891;SDS011;7016;48.172;8.058;2023-06-14T00:32:16;8.65;;;4.30;;
13891;SDS011;7016;48.172;8.058;2023-06-14T00:35:03;7.15;;;4.13;;
13891;SDS011;7016;48.172;8.058;2023-06-14T00:37:50;9.55;;;4.45;;
13891;SDS011;7016;48.172;8.058;2023-06-14T00:40:36;11.43;;;4.55;;
13891;SDS011;7016;48.172;8.058;2023-06-14T00:43:22;10.48;;;4.13;;
13891;SDS011;7016;48.172;8.058;2023-06-14T00:46:08;6.63;;;3.72;;
13891;SDS011;7016;48.172;8.058;2023-06-14T00:48:56;7.57;;;4.10;;
13891;SDS011;7016;48.172;8.058;2023-06-14T00:51:44;6.03;;;4.00;;
13891;SDS011;7016;48.172;8.058;2023-06-14T00:54:31;7.55;;;4.53;;
13891;SDS011;7016;48.172;8.058;2023-06-14T00:57:17;8.52;;;4.50;;
13891;SDS011;7016;48.172;8.058;2023-06-14T01:00:04;5.75;;;3.85;;
13891;SDS011;7016;48.172;8.058;2023-06-14T01:02:54;9.48;;;4.68;;
13891;SDS011;7016;48.172;8.058;2023-06-14T01:05:40;6.30;;;4.10;;
13891;SDS011;7016;48.172;8.058;2023-06-14T01:12:13;9.30;;;4.75;;
13891;SDS011;7016;48.172;8.058;2023-06-14T01:15:02;9.50;;;4.63;;
13891;SDS011;7016;48.172;8.058;2023-06-14T01:17:49;7.82;;;4.57;;
13891;SDS011;7016;48.172;8.058;2023-06-14T01:20:37;12.43;;;4.57;;
13891;SDS011;7016;48.172;8.058;2023-06-14T01:23:23;7.88;;;4.38;;
13891;SDS011;7016;48.172;8.058;2023-06-14T01:26:10;21.88;;;4.82;;
13891;SDS011;7016;48.172;8.058;2023-06-14T01:28:58;12.15;;;4.15;;
13891;SDS011;7016;48.172;8.058;2023-06-14T01:31:44;7.82;;;4.53;;
13891;SDS011;7016;48.172;8.058;2023-06-14T01:34:32;13.52;;;4.28;;
13891;SDS011;7016;48.172;8.058;2023-06-14T01:37:19;19.30;;;4.65;;
13891;SDS011;7016;48.172;8.058;2023-06-14T01:40:07;7.80;;;4.25;;
13891;SDS011;7016;48.172;8.058;2023-06-14T01:42:55;8.95;;;4.53;;
13891;SDS011;7016;48.172;8.058;2023-06-14T01:45:44;7.05;;;4.55;;
13891;SDS011;7016;48.172;8.058;2023-06-14T01:48:33;7.97;;;4.60;;
13891;SDS011;7016;48.172;8.058;2023-06-14T01:51:19;6.43;;;4.38;;
13891;SDS011;7016;48.172;8.058;2023-06-14T01:54:06;12.82;;;4.95;;
13891;SDS011;7016;48.172;8.058;2023-06-14T01:56:52;8.07;;;4.18;;
13891;SDS011;7016;48.172;8.058;2023-06-14T01:59:38;8.32;;;4.43;;
13891;SDS011;7016;48.172;8.058;2023-06-14T02:02:24;8.85;;;4.40;;
13891;SDS011;7016;48.172;8.058;2023-06-14T02:05:11;9.25;;;4.45;;
13891;SDS011;7016;48.172;8.058;2023-06-14T02:07:57;8.38;;;4.40;;
13891;SDS011;7016;48.172;8.058;2023-06-14T02:10:43;9.57;;;4.60;;
13891;SDS011;7016;48.172;8.058;2023-06-14T02:13:30;6.93;;;4.45;;
13891;SDS011;7016;48.172;8.058;2023-06-14T02:16:16;8.70;;;4.18;;
13891;SDS011;7016;48.172;8.058;2023-06-14T02:19:02;6.65;;;4.20;;
13891;SDS011;7016;48.172;8.058;2023-06-14T02:21:49;8.10;;;4.65;;
13891;SDS011;7016;48.172;8.058;2023-06-14T02:24:35;9.52;;;4.38;;
13891;SDS011;7016;48.172;8.058;2023-06-14T02:27:22;7.63;;;4.32;;
13891;SDS011;7016;48.172;8.058;2023-06-14T02:30:08;7.63;;;4.43;;
13891;SDS011;7016;48.172;8.058;2023-06-14T02:32:54;7.82;;;4.35;;
13891;SDS011;7016;48.172;8.058;2023-06-14T02:35:41;6.95;;;4.22;;
13891;SDS011;7016;48.172;8.058;2023-06-14T02:38:27;8.32;;;4.43;;
13891;SDS011;7016;48.172;8.058;2023-06-14T02:41:13;8.25;;;4.28;;
13891;SDS011;7016;48.172;8.058;2023-06-14T02:43:59;8.50;;;4.45;;
13891;SDS011;7016;48.172;8.058;2023-06-14T02:46:46;6.40;;;5.03;;
13891;SDS011;7016;48.172;8.058;2023-06-14T02:49:32;9.40;;;4.55;;
13891;SDS011;7016;48.172;8.058;2023-06-14T02:52:18;10.00;;;4.38;;
13891;SDS011;7016;48.172;8.058;2023-06-14T02:55:04;9.13;;;4.57;;
13891;SDS011;7016;48.172;8.058;2023-06-14T02:57:51;12.43;;;4.63;;
13891;SDS011;7016;48.172;8.058;2023-06-14T03:00:38;9.35;;;4.65;;
13891;SDS011;7016;48.172;8.058;2023-06-14T03:03:26;7.93;;;4.38;;
13891;SDS011;7016;48.172;8.058;2023-06-14T03:06:12;7.30;;;4.80;;
13891;SDS011;7016;48.172;8.058;2023-06-14T03:08:59;10.00;;;4.88;;
13891;SDS011;7016;48.172;8.058;2023-06-14T03:11:46;6.85;;;4.85;;
13891;SDS011;7016;48.172;8.058;2023-06-14T03:14:32;7.18;;;4.30;;
13891;SDS011;7016;48.172;8.058;2023-06-14T03:17:19;5.75;;;4.28;;
13891;SDS011;7016;48.172;8.058;2023-06-14T03:20:05;9.80;;;4.68;;
13891;SDS011;7016;48.172;8.058;2023-06-14T03:22:52;9.25;;;4.40;;
13891;SDS011;7016;48.172;8.058;2023-06-14T03:25:39;12.65;;;5.13;;
13891;SDS011;7016;48.172;8.058;2023-06-14T03:28:27;9.82;;;5.15;;
13891;SDS011;7016;48.172;8.058;2023-06-14T03:31:13;10.85;;;4.72;;
13891;SDS011;7016;48.172;8.058;2023-06-14T03:34:01;10.02;;;5.28;;
13891;SDS011;7016;48.172;8.058;2023-06-14T03:36:47;11.45;;;5.35;;
13891;SDS011;7016;48.172;8.058;2023-06-14T03:39:33;8.10;;;4.90;;
13891;SDS011;7016;48.172;8.058;2023-06-14T03:42:20;7.05;;;4.55;;
13891;SDS011;7016;48.172;8.058;2023-06-14T03:45:06;16.35;;;4.53;;
13891;SDS011;7016;48.172;8.058;2023-06-14T03:47:53;9.48;;;4.82;;
13891;SDS011;7016;48.172;8.058;2023-06-14T03:50:40;9.35;;;4.75;;
13891;SDS011;7016;48.172;8.058;2023-06-14T03:53:28;13.73;;;4.90;;
13891;SDS011;7016;48.172;8.058;2023-06-14T03:56:15;15.02;;;5.05;;
13891;SDS011;7016;48.172;8.058;2023-06-14T03:59:01;7.70;;;4.82;;
13891;SDS011;7016;48.172;8.058;2023-06-14T04:01:47;7.93;;;4.80;;
13891;SDS011;7016;48.172;8.058;2023-06-14T04:04:34;12.30;;;5.25;;
13891;SDS011;7016;48.172;8.058;2023-06-14T04:07:21;11.45;;;5.40;;
13891;SDS011;7016;48.172;8.058;2023-06-14T04:10:08;8.18;;;5.18;;
13891;SDS011;7016;48.172;8.058;2023-06-14T04:12:55;8.90;;;5.07;;
13891;SDS011;7016;48.172;8.058;2023-06-14T04:15:41;13.95;;;4.65;;
13891;SDS011;7016;48.172;8.058;2023-06-14T04:18:31;7.13;;;4.65;;
13891;SDS011;7016;48.172;8.058;2023-06-14T04:21:17;7.47;;;4.93;;
13891;SDS011;7016;48.172;8.058;2023-06-14T04:24:04;7.57;;;4.80;;
13891;SDS011;7016;48.172;8.058;2023-06-14T04:26:50;7.93;;;5.10;;
13891;SDS011;7016;48.172;8.058;2023-06-14T04:29:37;9.50;;;4.85;;
13891;SDS011;7016;48.172;8.058;2023-06-14T04:32:24;8.38;;;4.55;;
13891;SDS011;7016;48.172;8.058;2023-06-14T04:35:12;9.15;;;5.30;;
13891;SDS011;7016;48.172;8.058;2023-06-14T04:37:58;9.07;;;5.22;;
13891;SDS011;7016;48.172;8.058;2023-06-14T04:40:45;9.77;;;5.13;;
13891;SDS011;7016;48.172;8.058;2023-06-14T04:43:33;8.57;;;4.50;;
13891;SDS011;7016;48.172;8.058;2023-06-14T04:46:23;10.38;;;4.93;;
13891;SDS011;7016;48.172;8.058;2023-06-14T04:49:09;9.25;;;4.93;;
13891;SDS011;7016;48.172;8.058;2023-06-14T04:52:00;8.88;;;4.47;;
13891;SDS011;7016;48.172;8.058;2023-06-14T04:54:47;9.80;;;4.95;;
13891;SDS011;7016;48.172;8.058;2023-06-14T04:57:34;7.47;;;4.68;;
13891;SDS011;7016;48.172;8.058;2023-06-14T05:00:20;8.27;;;5.07;;
13891;SDS011;7016;48.172;8.058;2023-06-14T05:03:07;6.10;;;4.88;;
13891;SDS011;7016;48.172;8.058;2023-06-14T05:05:53;14.23;;;5.15;;
13891;SDS011;7016;48.172;8.058;2023-06-14T05:08:39;9.48;;;5.05;;
13891;SDS011;7016;48.172;8.058;2023-06-14T05:11:25;10.40;;;4.43;;
13891;SDS011;7016;48.172;8.058;2023-06-14T05:14:12;8.88;;;4.40;;
13891;SDS011;7016;48.172;8.058;2023-06-14T05:16:59;8.45;;;4.50;;
13891;SDS011;7016;48.172;8.058;2023-06-14T05:19:48;6.93;;;4.55;;
13891;SDS011;7016;48.172;8.058;2023-06-14T05:22:34;8.23;;;5.28;;
13891;SDS011;7016;48.172;8.058;2023-06-14T05:25:24;10.18;;;4.68;;
13891;SDS011;7016;48.172;8.058;2023-06-14T05:28:10;9.45;;;4.53;;
13891;SDS011;7016;48.172;8.058;2023-06-14T05:30:57;8.95;;;4.68;;
13891;SDS011;7016;48.172;8.058;2023-06-14T05:33:43;14.93;;;6.03;;
13891;SDS011;7016;48.172;8.058;2023-06-14T05:36:30;10.77;;;6.00;;
13891;SDS011;7016;48.172;8.058;2023-06-14T05:39:16;9.35;;;5.57;;
13891;SDS011;7016;48.172;8.058;2023-06-14T05:42:02;8.80;;;4.50;;
13891;SDS011;7016;48.172;8.058;2023-06-14T05:44:49;8.68;;;4.50;;
13891;SDS011;7016;48.172;8.058;2023-06-14T05:47:35;9.48;;;4.88;;
13891;SDS011;7016;48.172;8.058;2023-06-14T05:50:21;12.88;;;4.80;;
13891;SDS011;7016;48.172;8.058;2023-06-14T05:53:07;10.20;;;4.65;;
13891;SDS011;7016;48.172;8.058;2023-06-14T05:55:53;10.02;;;4.70;;
13891;SDS011;7016;48.172;8.058;2023-06-14T05:58:40;7.93;;;4.43;;
13891;SDS011;7016;48.172;8.058;2023-06-14T06:01:26;9.55;;;4.75;;
13891;SDS011;7016;48.172;8.058;2023-06-14T06:04:13;10.68;;;5.35;;
13891;SDS011;7016;48.172;8.058;2023-06-14T06:06:59;12.75;;;5.72;;
13891;SDS011;7016;48.172;8.058;2023-06-14T06:09:46;9.85;;;5.38;;
13891;SDS011;7016;48.172;8.058;2023-06-14T06:12:32;13.93;;;5.93;;
13891;SDS011;7016;48.172;8.058;2023-06-14T06:15:18;11.93;;;5.88;;
13891;SDS011;7016;48.172;8.058;2023-06-14T06:18:04;9.38;;;5.57;;
13891;SDS011;7016;48.172;8.058;2023-06-14T06:20:52;7.38;;;4.97;;
13891;SDS011;7016;48.172;8.058;2023-06-14T06:23:38;7.53;;;4.70;;
13891;SDS011;7016;48.172;8.058;2023-06-14T06:26:24;10.73;;;4.68;;
13891;SDS011;7016;48.172;8.058;2023-06-14T06:29:12;13.02;;;4.63;;
13891;SDS011;7016;48.172;8.058;2023-06-14T06:31:58;9.27;;;4.72;;
13891;SDS011;7016;48.172;8.058;2023-06-14T06:34:44;16.58;;;4.90;;
13891;SDS011;7016;48.172;8.058;2023-06-14T06:37:30;8.63;;;4.68;;
13891;SDS011;7016;48.172;8.058;2023-06-14T06:40:17;6.93;;;4.72;;
13891;SDS011;7016;48.172;8.058;2023-06-14T06:43:03;7.78;;;4.65;;
13891;SDS011;7016;48.172;8.058;2023-06-14T06:45:49;9.65;;;4.93;;
13891;SDS011;7016;48.172;8.058;2023-06-14T06:48:35;12.10;;;5.70;;
13891;SDS011;7016;48.172;8.058;2023-06-14T06:51:21;9.38;;;5.03;;
13891;SDS011;7016;48.172;8.058;2023-06-14T06:54:07;9.55;;;5.00;;
13891;SDS011;7016;48.172;8.058;2023-06-14T06:56:54;9.65;;;5.10;;
13891;SDS011;7016;48.172;8.058;2023-06-14T06:59:40;10.38;;;5.20;;
13891;SDS011;7016;48.172;8.058;2023-06-14T07:02:26;8.68;;;4.80;;
13891;SDS011;7016;48.172;8.058;2023-06-14T07:05:12;8.93;;;5.13;;
13891;SDS011;7016;48.172;8.058;2023-06-14T07:07:59;12.32;;;4.93;;
13891;SDS011;7016;48.172;8.058;2023-06-14T07:10:45;9.68;;;5.00;;
13891;SDS011;7016;48.172;8.058;2023-06-14T07:13:32;20.38;;;4.90;;
13891;SDS011;7016;48.172;8.058;2023-06-14T07:16:18;8.38;;;5.25;;
13891;SDS011;7016;48.172;8.058;2023-06-14T07:19:04;10.02;;;4.93;;
13891;SDS011;7016;48.172;8.058;2023-06-14T07:21:50;8.20;;;4.85;;
13891;SDS011;7016;48.172;8.058;2023-06-14T07:24:37;8.45;;;4.65;;
13891;SDS011;7016;48.172;8.058;2023-06-14T07:27:23;10.73;;;4.65;;
13891;SDS011;7016;48.172;8.058;2023-06-14T07:30:09;13.35;;;4.80;;
13891;SDS011;7016;48.172;8.058;2023-06-14T07:32:56;9.13;;;4.50;;
13891;SDS011;7016;48.172;8.058;2023-06-14T07:35:42;7.18;;;4.38;;
13891;SDS011;7016;48.172;8.058;2023-06-14T07:38:28;8.25;;;4.50;;
13891;SDS011;7016;48.172;8.058;2023-06-14T07:41:15;6.65;;;3.90;;
13891;SDS011;7016;48.172;8.058;2023-06-14T07:44:02;8.15;;;3.65;;
13891;SDS011;7016;48.172;8.058;2023-06-14T07:46:48;9.40;;;3.60;;
13891;SDS011;7016;48.172;8.058;2023-06-14T07:49:37;9.45;;;3.45;;
13891;SDS011;7016;48.172;8.058;2023-06-14T07:52:23;4.97;;;3.33;;
13891;SDS011;7016;48.172;8.058;2023-06-14T07:55:09;4.82;;;3.08;;
13891;SDS011;7016;48.172;8.058;2023-06-14T07:57:55;4.72;;;3.65;;
13891;SDS011;7016;48.172;8.058;2023-06-14T08:00:41;5.65;;;4.00;;
13891;SDS011;7016;48.172;8.058;2023-06-14T08:03:27;6.88;;;3.42;;
13891;SDS011;7016;48.172;8.058;2023-06-14T08:06:15;5.85;;;3.00;;
13891;SDS011;7016;48.172;8.058;2023-06-14T08:09:01;7.35;;;3.40;;
13891;SDS011;7016;48.172;8.058;2023-06-14T08:11:48;6.10;;;3.58;;
13891;SDS011;7016;48.172;8.058;2023-06-14T08:14:34;7.35;;;3.40;;
13891;SDS011;7016;48.172;8.058;2023-06-14T08:17:20;8.40;;;3.17;;
13891;SDS011;7016;48.172;8.058;2023-06-14T08:20:06;8.13;;;3.38;;
13891;SDS011;7016;48.172;8.058;2023-06-14T08:22:53;5.57;;;2.90;;
13891;SDS011;7016;48.172;8.058;2023-06-14T08:25:42;4.68;;;3.08;;
13891;SDS011;7016;48.172;8.058;2023-06-14T08:28:28;9.63;;;3.08;;
13891;SDS011;7016;48.172;8.058;2023-06-14T08:31:14;9.93;;;3.80;;
13891;SDS011;7016;48.172;8.058;2023-06-14T08:34:00;6.60;;;3.35;;
13891;SDS011;7016;48.172;8.058;2023-06-14T08:36:46;7.50;;;3.22;;
13891;SDS011;7016;48.172;8.058;2023-06-14T08:39:33;6.63;;;2.95;;
13891;SDS011;7016;48.172;8.058;2023-06-14T08:42:19;5.57;;;3.17;;
13891;SDS011;7016;48.172;8.058;2023-06-14T08:45:09;7.05;;;3.17;;
13891;SDS011;7016;48.172;8.058;2023-06-14T08:47:56;7.18;;;3.35;;
13891;SDS011;7016;48.172;8.058;2023-06-14T08:50:45;10.95;;;3.33;;
13891;SDS011;7016;48.172;8.058;2023-06-14T08:53:33;6.05;;;3.60;;
13891;SDS011;7016;48.172;8.058;2023-06-14T08:56:21;4.18;;;2.92;;
13891;SDS011;7016;48.172;8.058;2023-06-14T08:59:11;6.57;;;3.40;;
13891;SDS011;7016;48.172;8.058;2023-06-14T09:01:57;5.45;;;3.30;;
13891;SDS011;7016;48.172;8.058;2023-06-14T09:04:45;8.73;;;3.10;;
13891;SDS011;7016;48.172;8.058;2023-06-14T09:07:31;7.13;;;3.13;;
13891;SDS011;7016;48.172;8.058;2023-06-14T09:10:18;6.50;;;3.60;;
13891;SDS011;7016;48.172;8.058;2023-06-14T09:13:06;9.05;;;3.33;;
13891;SDS011;7016;48.172;8.058;2023-06-14T09:15:52;9.38;;;3.30;;
13891;SDS011;7016;48.172;8.058;2023-06-14T09:18:39;8.45;;;3.65;;
13891;SDS011;7016;48.172;8.058;2023-06-14T09:21:35;3.90;;;2.90;;
13891;SDS011;7016;48.172;8.058;2023-06-14T09:24:25;7.00;;;3.50;;
13891;SDS011;7016;48.172;8.058;2023-06-14T09:27:14;10.18;;;3.17;;
13891;SDS011;7016;48.172;8.058;2023-06-14T09:30:02;9.00;;;3.20;;
13891;SDS011;7016;48.172;8.058;2023-06-14T09:32:52;5.50;;;3.70;;
13891;SDS011;7016;48.172;8.058;2023-06-14T09:35:39;5.93;;;3.58;;
13891;SDS011;7016;48.172;8.058;2023-06-14T09:38:25;5.82;;;3.30;;
13891;SDS011;7016;48.172;8.058;2023-06-14T09:41:12;9.73;;;3.78;;
13891;SDS011;7016;48.172;8.058;2023-06-14T09:43:58;9.73;;;3.63;;
13891;SDS011;7016;48.172;8.058;2023-06-14T09:46:46;4.97;;;3.25;;
13891;SDS011;7016;48.172;8.058;2023-06-14T09:49:33;7.25;;;3.42;;
13891;SDS011;7016;48.172;8.058;2023-06-14T09:52:20;8.80;;;3.65;;
13891;SDS011;7016;48.172;8.058;2023-06-14T09:55:08;8.30;;;3.53;;
13891;SDS011;7016;48.172;8.058;2023-06-14T09:57:59;6.22;;;3.55;;
13891;SDS011;7016;48.172;8.058;2023-06-14T10:00:50;7.07;;;3.70;;
13891;SDS011;7016;48.172;8.058;2023-06-14T10:03:37;8.35;;;3.65;;
13891;SDS011;7016;48.172;8.058;2023-06-14T10:06:25;6.43;;;3.70;;
13891;SDS011;7016;48.172;8.058;2023-06-14T10:09:14;8.93;;;3.70;;
13891;SDS011;7016;48.172;8.058;2023-06-14T10:12:00;8.25;;;3.92;;
13891;SDS011;7016;48.172;8.058;2023-06-14T10:14:48;7.90;;;3.75;;
13891;SDS011;7016;48.172;8.058;2023-06-14T10:17:52;7.30;;;3.50;;
13891;SDS011;7016;48.172;8.058;2023-06-14T10:20:50;10.23;;;3.30;;
13891;SDS011;7016;48.172;8.058;2023-06-14T10:23:41;6.32;;;3.92;;
13891;SDS011;7016;48.172;8.058;2023-06-14T10:26:29;6.80;;;3.80;;
13891;SDS011;7016;48.172;8.058;2023-06-14T10:29:15;4.63;;;3.25;;
13891;SDS011;7016;48.172;8.058;2023-06-14T10:32:02;5.95;;;3.60;;
13891;SDS011;7016;48.172;8.058;2023-06-14T10:34:53;5.78;;;3.55;;
13891;SDS011;7016;48.172;8.058;2023-06-14T10:37:41;8.48;;;3.63;;
13891;SDS011;7016;48.172;8.058;2023-06-14T10:40:30;7.72;;;3.67;;
13891;SDS011;7016;48.172;8.058;2023-06-14T10:43:23;7.75;;;3.10;;
13891;SDS011;7016;48.172;8.058;2023-06-14T10:46:13;5.15;;;3.65;;
13891;SDS011;7016;48.172;8.058;2023-06-14T10:49:03;5.88;;;3.28;;
13891;SDS011;7016;48.172;8.058;2023-06-14T10:51:51;5.47;;;3.67;;
13891;SDS011;7016;48.172;8.058;2023-06-14T10:54:55;7.20;;;3.80;;
13891;SDS011;7016;48.172;8.058;2023-06-14T10:57:53;5.82;;;3.42;;
13891;SDS011;7016;48.172;8.058;2023-06-14T11:00:44;7.53;;;3.40;;
13891;SDS011;7016;48.172;8.058;2023-06-14T11:06:45;5.55;;;3.47;;
13891;SDS011;7016;48.172;8.058;2023-06-14T11:12:37;6.80;;;3.33;;
13891;SDS011;7016;48.172;8.058;2023-06-14T11:15:31;8.15;;;3.78;;
13891;SDS011;7016;48.172;8.058;2023-06-14T11:18:19;6.55;;;3.55;;
13891;SDS011;7016;48.172;8.058;2023-06-14T11:21:09;8.20;;;3.35;;
13891;SDS011;7016;48.172;8.058;2023-06-14T11:23:56;10.23;;;4.10;;
13891;SDS011;7016;48.172;8.058;2023-06-14T11:26:42;6.45;;;3.50;;
13891;SDS011;7016;48.172;8.058;2023-06-14T11:29:28;7.07;;;3.30;;
13891;SDS011;7016;48.172;8.058;2023-06-14T11:32:16;6.22;;;3.70;;
13891;SDS011;7016;48.172;8.058;2023-06-14T11:35:02;7.75;;;3.65;;
13891;SDS011;7016;48.172;8.058;2023-06-14T11:37:53;6.15;;;3.40;;
13891;SDS011;7016;48.172;8.058;2023-06-14T11:40:42;6.40;;;3.88;;
13891;SDS011;7016;48.172;8.058;2023-06-14T11:43:28;7.00;;;3.63;;
13891;SDS011;7016;48.172;8.058;2023-06-14T11:46:17;8.48;;;3.63;;
13891;SDS011;7016;48.172;8.058;2023-06-14T11:49:07;5.47;;;3.33;;
13891;SDS011;7016;48.172;8.058;2023-06-14T11:51:54;13.35;;;3.72;;
13891;SDS011;7016;48.172;8.058;2023-06-14T11:54:41;7.32;;;3.67;;
13891;SDS011;7016;48.172;8.058;2023-06-14T11:57:27;14.75;;;4.63;;
13891;SDS011;7016;48.172;8.058;2023-06-14T12:00:14;10.57;;;3.85;;
13891;SDS011;7016;48.172;8.058;2023-06-14T12:03:01;6.85;;;3.53;;
13891;SDS011;7016;48.172;8.058;2023-06-14T12:05:48;9.15;;;3.88;;
13891;SDS011;7016;48.172;8.058;2023-06-14T12:08:38;9.25;;;3.92;;
13891;SDS011;7016;48.172;8.058;2023-06-14T12:11:31;9.48;;;4.10;;
13891;SDS011;7016;48.172;8.058;2023-06-14T12:14:19;8.18;;;3.97;;
13891;SDS011;7016;48.172;8.058;2023-06-14T12:17:06;7.75;;;3.75;;
13891;SDS011;7016;48.172;8.058;2023-06-14T12:19:52;5.88;;;3.85;;
13891;SDS011;7016;48.172;8.058;2023-06-14T12:22:39;8.00;;;4.32;;
13891;SDS011;7016;48.172;8.058;2023-06-14T12:25:38;6.35;;;4.13;;
13891;SDS011;7016;48.172;8.058;2023-06-14T12:28:30;12.20;;;4.00;;
13891;SDS011;7016;48.172;8.058;2023-06-14T12:31:17;4.65;;;3.60;;
13891;SDS011;7016;48.172;8.058;2023-06-14T12:34:04;8.65;;;4.38;;
13891;SDS011;7016;48.172;8.058;2023-06-14T12:36:50;6.50;;;3.63;;
13891;SDS011;7016;48.172;8.058;2023-06-14T12:39:37;7.72;;;3.47;;
13891;SDS011;7016;48.172;8.058;2023-06-14T12:42:24;7.50;;;4.13;;
13891;SDS011;7016;48.172;8.058;2023-06-14T12:45:11;11.60;;;4.30;;
13891;SDS011;7016;48.172;8.058;2023-06-14T12:47:57;11.23;;;4.00;;
13891;SDS011;7016;48.172;8.058;2023-06-14T12:50:43;12.48;;;4.13;;
13891;SDS011;7016;48.172;8.058;2023-06-14T12:53:29;8.13;;;4.25;;
13891;SDS011;7016;48.172;8.058;2023-06-14T12:56:15;7.50;;;4.05;;
13891;SDS011;7016;48.172;8.058;2023-06-14T12:59:01;9.27;;;3.70;;
13891;SDS011;7016;48.172;8.058;2023-06-14T13:01:48;8.13;;;3.92;;
13891;SDS011;7016;48.172;8.058;2023-06-14T13:04:35;10.07;;;4.15;;
13891;SDS011;7016;48.172;8.058;2023-06-14T13:07:22;7.25;;;3.92;;
13891;SDS011;7016;48.172;8.058;2023-06-14T13:10:08;7.18;;;3.67;;
13891;SDS011;7016;48.172;8.058;2023-06-14T13:12:54;12.65;;;3.83;;
13891;SDS011;7016;48.172;8.058;2023-06-14T13:15:43;7.20;;;4.20;;
13891;SDS011;7016;48.172;8.058;2023-06-14T13:18:31;6.25;;;3.80;;
13891;SDS011;7016;48.172;8.058;2023-06-14T13:21:17;7.18;;;3.90;;
13891;SDS011;7016;48.172;8.058;2023-06-14T13:24:03;8.90;;;4.10;;
13891;SDS011;7016;48.172;8.058;2023-06-14T13:26:50;7.38;;;4.00;;
13891;SDS011;7016;48.172;8.058;2023-06-14T13:29:36;9.15;;;4.28;;
13891;SDS011;7016;48.172;8.058;2023-06-14T13:32:23;5.32;;;4.03;;
13891;SDS011;7016;48.172;8.058;2023-06-14T13:35:09;11.38;;;3.95;;
13891;SDS011;7016;48.172;8.058;2023-06-14T13:37:55;10.95;;;4.20;;
13891;SDS011;7016;48.172;8.058;2023-06-14T13:40:41;10.10;;;4.10;;
13891;SDS011;7016;48.172;8.058;2023-06-14T13:43:28;11.15;;;3.90;;
13891;SDS011;7016;48.172;8.058;2023-06-14T13:46:17;8.27;;;4.35;;
13891;SDS011;7016;48.172;8.058;2023-06-14T13:49:05;7.22;;;4.15;;
13891;SDS011;7016;48.172;8.058;2023-06-14T13:51:52;5.72;;;3.97;;
13891;SDS011;7016;48.172;8.058;2023-06-14T13:54:38;7.38;;;4.05;;
13891;SDS011;7016;48.172;8.058;2023-06-14T13:57:24;8.70;;;3.72;;
13891;SDS011;7016;48.172;8.058;2023-06-14T14:00:11;6.00;;;3.53;;
13891;SDS011;7016;48.172;8.058;2023-06-14T14:03:00;9.02;;;3.90;;
13891;SDS011;7016;48.172;8.058;2023-06-14T14:05:48;5.88;;;3.72;;
13891;SDS011;7016;48.172;8.058;2023-06-14T14:08:35;6.82;;;3.38;;
13891;SDS011;7016;48.172;8.058;2023-06-14T14:11:21;8.68;;;3.72;;
13891;SDS011;7016;48.172;8.058;2023-06-14T14:14:08;7.05;;;3.88;;
13891;SDS011;7016;48.172;8.058;2023-06-14T14:16:54;8.48;;;3.60;;
13891;SDS011;7016;48.172;8.058;2023-06-14T14:19:40;8.32;;;4.20;;
13891;SDS011;7016;48.172;8.058;2023-06-14T14:22:26;6.80;;;4.05;;
13891;SDS011;7016;48.172;8.058;2023-06-14T14:25:13;11.25;;;4.07;;
13891;SDS011;7016;48.172;8.058;2023-06-14T14:27:59;5.15;;;3.85;;
13891;SDS011;7016;48.172;8.058;2023-06-14T14:30:46;14.27;;;3.80;;
13891;SDS011;7016;48.172;8.058;2023-06-14T14:33:32;8.57;;;3.80;;
13891;SDS011;7016;48.172;8.058;2023-06-14T14:36:20;10.95;;;3.90;;
13891;SDS011;7016;48.172;8.058;2023-06-14T14:39:06;10.18;;;3.78;;
13891;SDS011;7016;48.172;8.058;2023-06-14T14:41:52;7.45;;;3.70;;
13891;SDS011;7016;48.172;8.058;2023-06-14T14:44:39;4.97;;;4.00;;
13891;SDS011;7016;48.172;8.058;2023-06-14T14:47:25;8.38;;;3.58;;
13891;SDS011;7016;48.172;8.058;2023-06-14T14:50:12;9.65;;;3.78;;
13891;SDS011;7016;48.172;8.058;2023-06-14T14:52:58;9.55;;;3.97;;
13891;SDS011;7016;48.172;8.058;2023-06-14T14:55:44;9.43;;;3.72;;
13891;SDS011;7016;48.172;8.058;2023-06-14T14:58:31;7.95;;;4.13;;
13891;SDS011;7016;48.172;8.058;2023-06-14T15:01:17;8.45;;;3.80;;
13891;SDS011;7016;48.172;8.058;2023-06-14T15:04:03;9.60;;;3.72;;
13891;SDS011;7016;48.172;8.058;2023-06-14T15:06:50;11.25;;;4.30;;
13891;SDS011;7016;48.172;8.058;2023-06-14T15:09:36;14.77;;;3.65;;
13891;SDS011;7016;48.172;8.058;2023-06-14T15:12:22;7.82;;;3.90;;
13891;SDS011;7016;48.172;8.058;2023-06-14T15:15:09;5.82;;;3.90;;
13891;SDS011;7016;48.172;8.058;2023-06-14T15:17:55;7.68;;;3.75;;
13891;SDS011;7016;48.172;8.058;2023-06-14T15:20:41;6.97;;;3.67;;
13891;SDS011;7016;48.172;8.058;2023-06-14T15:23:28;10.85;;;4.88;;
13891;SDS011;7016;48.172;8.058;2023-06-14T15:26:14;6.80;;;4.13;;
13891;SDS011;7016;48.172;8.058;2023-06-14T15:29:00;6.03;;;3.30;;
13891;SDS011;7016;48.172;8.058;2023-06-14T15:31:46;5.72;;;3.65;;
13891;SDS011;7016;48.172;8.058;2023-06-14T15:34:33;9.55;;;3.50;;
13891;SDS011;7016;48.172;8.058;2023-06-14T15:37:19;11.80;;;3.85;;
13891;SDS011;7016;48.172;8.058;2023-06-14T15:40:06;6.82;;;3.60;;
13891;SDS011;7016;48.172;8.058;2023-06-14T15:42:52;10.90;;;4.20;;
13891;SDS011;7016;48.172;8.058;2023-06-14T15:45:38;8.45;;;3.88;;
13891;SDS011;7016;48.172;8.058;2023-06-14T15:48:25;5.47;;;3.50;;
13891;SDS011;7016;48.172;8.058;2023-06-14T15:51:11;8.23;;;3.85;;
13891;SDS011;7016;48.172;8.058;2023-06-14T15:53:57;9.32;;;3.92;;
13891;SDS011;7016;48.172;8.058;2023-06-14T15:56:43;11.85;;;3.90;;
13891;SDS011;7016;48.172;8.058;2023-06-14T15:59:30;7.28;;;3.95;;
13891;SDS011;7016;48.172;8.058;2023-06-14T16:02:16;8.63;;;4.20;;
13891;SDS011;7016;48.172;8.058;2023-06-14T16:05:02;12.85;;;4.07;;
13891;SDS011;7016;48.172;8.058;2023-06-14T16:07:48;9.02;;;3.78;;
13891;SDS011;7016;48.172;8.058;2023-06-14T16:10:34;12.45;;;3.92;;
13891;SDS011;7016;48.172;8.058;2023-06-14T16:13:21;12.98;;;4.70;;
13891;SDS011;7016;48.172;8.058;2023-06-14T16:16:09;6.35;;;3.92;;
13891;SDS011;7016;48.172;8.058;2023-06-14T16:18:55;11.75;;;4.40;;
13891;SDS011;7016;48.172;8.058;2023-06-14T16:21:41;9.70;;;3.85;;
13891;SDS011;7016;48.172;8.058;2023-06-14T16:24:27;7.32;;;3.83;;
13891;SDS011;7016;48.172;8.058;2023-06-14T16:27:14;7.32;;;3.90;;
13891;SDS011;7016;48.172;8.058;2023-06-14T16:30:00;7.25;;;3.83;;
13891;SDS011;7016;48.172;8.058;2023-06-14T16:32:46;9.10;;;4.25;;
13891;SDS011;7016;48.172;8.058;2023-06-14T16:35:32;4.85;;;3.58;;
13891;SDS011;7016;48.172;8.058;2023-06-14T16:38:18;6.00;;;3.90;;
13891;SDS011;7016;48.172;8.058;2023-06-14T16:41:06;10.13;;;3.95;;
13891;SDS011;7016;48.172;8.058;2023-06-14T16:43:53;10.73;;;3.92;;
13891;SDS011;7016;48.172;8.058;2023-06-14T16:46:39;5.65;;;3.70;;
13891;SDS011;7016;48.172;8.058;2023-06-14T16:49:25;12.63;;;3.60;;
13891;SDS011;7016;48.172;8.058;2023-06-14T16:52:11;9.57;;;3.80;;
13891;SDS011;7016;48.172;8.058;2023-06-14T16:54:57;7.80;;;4.10;;
13891;SDS011;7016;48.172;8.058;2023-06-14T16:57:44;8.35;;;3.92;;
13891;SDS011;7016;48.172;8.058;2023-06-14T17:00:30;7.38;;;3.83;;
13891;SDS011;7016;48.172;8.058;2023-06-14T17:03:16;8.57;;;3.53;;
13891;SDS011;7016;48.172;8.058;2023-06-14T17:06:02;9.45;;;3.88;;
13891;SDS011;7016;48.172;8.058;2023-06-14T17:08:48;8.73;;;3.60;;